AFR377 KDTW-LFPG
Flight info
| Callsign | AFR377 |
|---|---|
| Flight time | N/A |
| Altitude | 39000 |
| Route | ZETTR4 DUTEL Q923 YVO DCT ULDON DCT 52N070W DCT DORYY/M084F400 NATS KESIX/N0484F410 DCT LUTOV DCT NIPIT DCT LIPGO DCT NUCHU L18 MID/N0487F290 Y803 SFD UM605 BIBAX |
| Aircraft | A359/H-SDE2E3GHIJ3J4J5LM1ORWXY/LB1D1 |
Departure
| Time | N/A |
|---|---|
| Airport | Detroit Metropolitan Wayne County Airport (KDTW) |
Arrival
| Time | 2026-04-30 13:15 |
|---|---|
| Airport | Charles de Gaulle International Airport (LFPG) |
| Time | Latitude | Longitude | Altitude | Speed | Heading |
|---|---|---|---|---|---|
| 2026-04-30 11:53 | 52.24223 | -3.45913 | 41174 ft | 469 kts | 126° |
| 2026-04-30 11:53 | 52.22382 | -3.41519 | 41179 ft | 469 kts | 126° |
| 2026-04-30 11:54 | 52.18693 | -3.32745 | 41179 ft | 470 kts | 127° |
| 2026-04-30 11:54 | 52.14989 | -3.23965 | 41180 ft | 470 kts | 127° |
| 2026-04-30 11:55 | 52.11278 | -3.15200 | 41183 ft | 470 kts | 127° |
| 2026-04-30 11:55 | 52.08189 | -3.07923 | 41184 ft | 470 kts | 127° |
| 2026-04-30 11:56 | 52.04472 | -2.99196 | 41208 ft | 469 kts | 126° |
| 2026-04-30 11:56 | 52.00753 | -2.90494 | 41229 ft | 469 kts | 126° |
| 2026-04-30 11:57 | 51.97035 | -2.81824 | 41243 ft | 468 kts | 126° |
| 2026-04-30 11:57 | 51.93307 | -2.73161 | 41250 ft | 468 kts | 126° |
| 2026-04-30 11:58 | 51.89587 | -2.64541 | 41245 ft | 467 kts | 127° |
| 2026-04-30 11:58 | 51.85852 | -2.55918 | 41187 ft | 468 kts | 127° |
| 2026-04-30 11:59 | 51.82105 | -2.47296 | 41185 ft | 468 kts | 127° |
| 2026-04-30 11:59 | 51.78351 | -2.38687 | 41187 ft | 469 kts | 127° |
| 2026-04-30 12:00 | 51.74587 | -2.30084 | 41189 ft | 470 kts | 127° |
| 2026-04-30 12:00 | 51.70808 | -2.21479 | 41187 ft | 470 kts | 127° |
| 2026-04-30 12:01 | 51.67043 | -2.12930 | 41205 ft | 471 kts | 127° |
| 2026-04-30 12:01 | 51.63247 | -2.04339 | 41196 ft | 471 kts | 127° |
| 2026-04-30 12:02 | 51.59442 | -1.95761 | 41198 ft | 471 kts | 127° |
| 2026-04-30 12:02 | 51.55630 | -1.87192 | 41193 ft | 471 kts | 127° |
| 2026-04-30 12:03 | 51.49903 | -1.74366 | 41192 ft | 471 kts | 127° |
| 2026-04-30 12:04 | 51.46347 | -1.65539 | 41199 ft | 473 kts | 118° |
| 2026-04-30 12:04 | 51.43442 | -1.56056 | 41186 ft | 474 kts | 117° |
| 2026-04-30 12:05 | 51.40649 | -1.46494 | 41176 ft | 474 kts | 117° |
| 2026-04-30 12:05 | 51.37857 | -1.36942 | 41177 ft | 473 kts | 117° |
| 2026-04-30 12:06 | 51.35068 | -1.27483 | 41184 ft | 473 kts | 117° |
| 2026-04-30 12:06 | 51.31830 | -1.18361 | 41185 ft | 471 kts | 124° |
| 2026-04-30 12:07 | 51.28142 | -1.09729 | 41187 ft | 470 kts | 128° |
| 2026-04-30 12:07 | 51.24126 | -1.01506 | 41183 ft | 470 kts | 130° |
| 2026-04-30 12:08 | 51.20104 | -0.93289 | 41185 ft | 470 kts | 129° |
| 2026-04-30 12:08 | 51.16131 | -0.85005 | 41186 ft | 470 kts | 129° |
| 2026-04-30 12:09 | 51.12184 | -0.76716 | 41210 ft | 470 kts | 128° |
| 2026-04-30 12:09 | 51.08231 | -0.68429 | 41209 ft | 470 kts | 128° |
| 2026-04-30 12:10 | 51.04442 | -0.59969 | 41213 ft | 470 kts | 124° |
| 2026-04-30 12:10 | 51.00965 | -0.51161 | 41197 ft | 471 kts | 123° |
| 2026-04-30 12:11 | 50.97537 | -0.42325 | 41196 ft | 470 kts | 123° |
| 2026-04-30 12:11 | 50.94099 | -0.33484 | 41186 ft | 470 kts | 123° |
| 2026-04-30 12:12 | 50.91648 | -0.27216 | 41185 ft | 470 kts | 123° |
| 2026-04-30 12:35 | 50.91022 | -0.25618 | 41191 ft | 470 kts | 123° |
| 2026-04-30 12:35 | 50.87565 | -0.16829 | 41192 ft | 470 kts | 123° |
| 2026-04-30 12:36 | 50.84098 | -0.08043 | 41187 ft | 470 kts | 123° |
| 2026-04-30 12:36 | 50.80630 | 0.00720 | 41195 ft | 470 kts | 123° |
| 2026-04-30 12:37 | 50.77075 | 0.09386 | 41194 ft | 469 kts | 128° |
| 2026-04-30 12:37 | 50.72548 | 0.16737 | 41203 ft | 467 kts | 140° |
| 2026-04-30 12:38 | 50.67546 | 0.23262 | 41199 ft | 467 kts | 141° |
| 2026-04-30 12:38 | 50.62459 | 0.29674 | 41203 ft | 468 kts | 141° |
| 2026-04-30 12:39 | 50.57380 | 0.36087 | 41200 ft | 469 kts | 141° |
| 2026-04-30 12:39 | 50.52302 | 0.42529 | 41194 ft | 469 kts | 141° |
| 2026-04-30 12:40 | 50.47219 | 0.48961 | 41190 ft | 469 kts | 141° |
| 2026-04-30 12:40 | 50.42724 | 0.56264 | 40811 ft | 465 kts | 120° |
| 2026-04-30 12:41 | 50.41474 | 0.60930 | 40190 ft | 466 kts | 105° |
| 2026-04-30 12:41 | 50.41094 | 0.65971 | 39582 ft | 468 kts | 89° |
| 2026-04-30 12:41 | 50.41615 | 0.70993 | 39009 ft | 470 kts | 73° |
| 2026-04-30 12:41 | 50.43000 | 0.75634 | 38321 ft | 473 kts | 58° |
| 2026-04-30 12:42 | 50.45123 | 0.79508 | 37616 ft | 477 kts | 43° |
| 2026-04-30 12:42 | 50.47881 | 0.82414 | 36874 ft | 482 kts | 28° |
| 2026-04-30 12:42 | 50.51072 | 0.84095 | 36113 ft | 488 kts | 13° |
| 2026-04-30 12:42 | 50.54478 | 0.84418 | 35321 ft | 496 kts | 358° |
| 2026-04-30 12:43 | 50.56790 | 0.83843 | 34747 ft | 501 kts | 347° |
| 2026-04-30 12:43 | 50.60057 | 0.81844 | 33833 ft | 509 kts | 332° |
| 2026-04-30 12:43 | 50.62943 | 0.78574 | 32839 ft | 515 kts | 317° |
| 2026-04-30 12:43 | 50.65221 | 0.74310 | 31868 ft | 518 kts | 302° |
| 2026-04-30 12:44 | 50.66810 | 0.69139 | 30921 ft | 518 kts | 286° |
| 2026-04-30 12:44 | 50.67512 | 0.63674 | 30057 ft | 514 kts | 271° |
| 2026-04-30 12:44 | 50.67321 | 0.58134 | 29263 ft | 504 kts | 256° |
| 2026-04-30 12:44 | 50.66359 | 0.52898 | 28596 ft | 494 kts | 246° |
| 2026-04-30 12:45 | 50.65075 | 0.47926 | 28251 ft | 488 kts | 240° |
| 2026-04-30 12:45 | 50.63414 | 0.43291 | 28196 ft | 484 kts | 232° |
| 2026-04-30 12:45 | 50.61311 | 0.39219 | 28194 ft | 476 kts | 219° |
| 2026-04-30 12:45 | 50.58671 | 0.36179 | 28196 ft | 465 kts | 204° |
| 2026-04-30 12:46 | 50.55680 | 0.34441 | 28192 ft | 455 kts | 188° |
| 2026-04-30 12:46 | 50.52552 | 0.34092 | 28190 ft | 448 kts | 172° |
| 2026-04-30 12:46 | 50.46611 | 0.36594 | 28185 ft | 442 kts | 153° |
| 2026-04-30 12:47 | 50.44026 | 0.39174 | 28187 ft | 440 kts | 140° |
| 2026-04-30 12:47 | 50.41871 | 0.42561 | 28187 ft | 440 kts | 129° |
| 2026-04-30 12:47 | 50.38745 | 0.50804 | 28185 ft | 442 kts | 116° |
| 2026-04-30 12:48 | 50.36201 | 0.59577 | 28182 ft | 442 kts | 119° |
| 2026-04-30 12:48 | 50.33307 | 0.68063 | 28180 ft | 442 kts | 129° |
| 2026-04-30 12:49 | 50.28945 | 0.74774 | 28002 ft | 436 kts | 140° |
| 2026-04-30 12:49 | 50.26500 | 0.77557 | 27268 ft | 434 kts | 145° |
| 2026-04-30 12:49 | 50.23963 | 0.80091 | 26665 ft | 430 kts | 147° |
| 2026-04-30 12:50 | 50.21405 | 0.82467 | 26128 ft | 425 kts | 148° |
| 2026-04-30 12:50 | 50.18918 | 0.84859 | 25813 ft | 413 kts | 143° |
| 2026-04-30 12:50 | 50.16654 | 0.87479 | 25684 ft | 398 kts | 141° |
| 2026-04-30 12:50 | 50.14492 | 0.90075 | 25550 ft | 385 kts | 141° |
| 2026-04-30 12:51 | 50.12418 | 0.92601 | 25396 ft | 373 kts | 141° |
| 2026-04-30 12:51 | 50.10435 | 0.95032 | 25239 ft | 362 kts | 140° |
| 2026-04-30 12:51 | 50.08453 | 0.97470 | 24857 ft | 358 kts | 140° |
| 2026-04-30 12:51 | 50.06511 | 0.99834 | 24400 ft | 361 kts | 142° |
| 2026-04-30 12:52 | 50.04355 | 1.01893 | 24007 ft | 366 kts | 150° |
| 2026-04-30 12:52 | 50.02068 | 1.03647 | 23513 ft | 367 kts | 152° |
| 2026-04-30 12:52 | 49.99765 | 1.05358 | 23086 ft | 366 kts | 152° |
| 2026-04-30 12:52 | 49.97481 | 1.07060 | 22693 ft | 364 kts | 152° |
| 2026-04-30 12:53 | 49.95200 | 1.08766 | 22299 ft | 362 kts | 152° |
| 2026-04-30 12:53 | 49.92935 | 1.10462 | 21914 ft | 361 kts | 152° |
| 2026-04-30 12:53 | 49.90683 | 1.12151 | 21537 ft | 359 kts | 152° |
| 2026-04-30 12:53 | 49.88435 | 1.13836 | 21141 ft | 357 kts | 152° |
| 2026-04-30 12:54 | 49.86205 | 1.15504 | 20755 ft | 356 kts | 152° |
| 2026-04-30 12:54 | 49.83975 | 1.17174 | 20374 ft | 355 kts | 152° |
| 2026-04-30 12:54 | 49.81760 | 1.18832 | 19990 ft | 353 kts | 153° |
| 2026-04-30 12:54 | 49.79556 | 1.20478 | 19617 ft | 351 kts | 153° |
| 2026-04-30 12:55 | 49.77361 | 1.22114 | 19239 ft | 350 kts | 153° |
| 2026-04-30 12:55 | 49.75168 | 1.23746 | 18872 ft | 349 kts | 153° |
| 2026-04-30 12:55 | 49.72986 | 1.25371 | 18499 ft | 348 kts | 153° |
| 2026-04-30 12:55 | 49.70810 | 1.26990 | 18095 ft | 346 kts | 153° |
| 2026-04-30 12:56 | 49.68643 | 1.28598 | 17711 ft | 345 kts | 153° |
| 2026-04-30 12:56 | 49.66489 | 1.30196 | 17340 ft | 343 kts | 153° |
| 2026-04-30 12:56 | 49.64333 | 1.31795 | 16975 ft | 342 kts | 153° |
| 2026-04-30 12:56 | 49.61894 | 1.33600 | 16554 ft | 340 kts | 153° |
| 2026-04-30 12:57 | 49.57600 | 1.36779 | 15818 ft | 336 kts | 153° |
| 2026-04-30 12:57 | 49.53455 | 1.39839 | 15112 ft | 333 kts | 153° |
| 2026-04-30 12:57 | 49.50015 | 1.42374 | 14524 ft | 331 kts | 153° |
| 2026-04-30 12:57 | 49.47972 | 1.43877 | 14236 ft | 329 kts | 153° |
| 2026-04-30 12:58 | 49.45906 | 1.45395 | 14084 ft | 329 kts | 153° |
| 2026-04-30 12:58 | 49.43861 | 1.46896 | 13781 ft | 321 kts | 153° |
| 2026-04-30 12:58 | 49.41878 | 1.48351 | 13561 ft | 310 kts | 153° |
| 2026-04-30 12:58 | 49.39960 | 1.49758 | 13355 ft | 300 kts | 153° |
| 2026-04-30 12:59 | 49.38096 | 1.51127 | 12994 ft | 295 kts | 153° |
| 2026-04-30 12:59 | 49.36252 | 1.52480 | 12596 ft | 293 kts | 153° |
| 2026-04-30 12:59 | 49.34420 | 1.53821 | 12189 ft | 290 kts | 153° |
| 2026-04-30 12:59 | 49.32607 | 1.55164 | 11784 ft | 288 kts | 151° |
| 2026-04-30 13:00 | 49.31009 | 1.56944 | 11464 ft | 281 kts | 132° |
| 2026-04-30 13:00 | 49.30012 | 1.59477 | 11098 ft | 279 kts | 109° |
| 2026-04-30 13:00 | 49.29698 | 1.62397 | 10852 ft | 280 kts | 96° |
| 2026-04-30 13:00 | 49.29584 | 1.65375 | 10675 ft | 280 kts | 95° |
| 2026-04-30 13:01 | 49.29475 | 1.68356 | 10506 ft | 279 kts | 96° |
| 2026-04-30 13:01 | 49.29342 | 1.71312 | 10335 ft | 278 kts | 98° |
| 2026-04-30 13:01 | 49.28861 | 1.74143 | 10168 ft | 275 kts | 117° |
| 2026-04-30 13:01 | 49.27711 | 1.76441 | 9989 ft | 272 kts | 140° |
| 2026-04-30 13:02 | 49.26089 | 1.77924 | 9798 ft | 273 kts | 154° |
| 2026-04-30 13:02 | 49.24344 | 1.79088 | 9604 ft | 273 kts | 156° |
| 2026-04-30 13:02 | 49.22597 | 1.80225 | 9448 ft | 273 kts | 155° |
| 2026-04-30 13:02 | 49.20857 | 1.81377 | 9251 ft | 271 kts | 155° |
| 2026-04-30 13:03 | 49.19131 | 1.82529 | 9078 ft | 271 kts | 155° |
| 2026-04-30 13:03 | 49.17405 | 1.83683 | 8898 ft | 270 kts | 155° |
| 2026-04-30 13:03 | 49.15689 | 1.84836 | 8724 ft | 269 kts | 155° |
| 2026-04-30 13:03 | 49.13997 | 1.85968 | 8545 ft | 268 kts | 155° |
| 2026-04-30 13:04 | 49.12288 | 1.87110 | 8378 ft | 268 kts | 155° |
| 2026-04-30 13:04 | 49.10559 | 1.88269 | 8185 ft | 268 kts | 155° |
| 2026-04-30 13:04 | 49.08877 | 1.89397 | 8023 ft | 267 kts | 155° |
| 2026-04-30 13:04 | 49.07185 | 1.90531 | 7836 ft | 265 kts | 155° |
| 2026-04-30 13:05 | 49.05497 | 1.91661 | 7667 ft | 264 kts | 155° |
| 2026-04-30 13:05 | 49.03810 | 1.92792 | 7491 ft | 265 kts | 155° |
| 2026-04-30 13:05 | 49.02127 | 1.93924 | 7321 ft | 264 kts | 154° |
| 2026-04-30 13:06 | 49.00903 | 1.95027 | 7202 ft | 261 kts | 141° |
| 2026-04-30 13:06 | 48.99817 | 1.96927 | 7079 ft | 250 kts | 120° |
| 2026-04-30 13:06 | 48.99220 | 1.99367 | 6945 ft | 242 kts | 106° |
| 2026-04-30 13:06 | 48.98842 | 2.01809 | 6838 ft | 233 kts | 105° |
| 2026-04-30 13:07 | 48.98484 | 2.04163 | 6691 ft | 223 kts | 105° |
| 2026-04-30 13:07 | 48.98133 | 2.06425 | 6550 ft | 215 kts | 105° |
| 2026-04-30 13:07 | 48.97792 | 2.08598 | 6439 ft | 205 kts | 105° |
| 2026-04-30 13:07 | 48.97467 | 2.10652 | 6268 ft | 196 kts | 106° |
| 2026-04-30 13:08 | 48.97149 | 2.12633 | 5907 ft | 195 kts | 107° |
| 2026-04-30 13:08 | 48.97000 | 2.14697 | 5551 ft | 198 kts | 90° |
| 2026-04-30 13:08 | 48.97130 | 2.16787 | 5216 ft | 200 kts | 87° |
| 2026-04-30 13:08 | 48.97266 | 2.18899 | 4873 ft | 201 kts | 89° |
| 2026-04-30 13:09 | 48.97386 | 2.21025 | 4543 ft | 203 kts | 89° |
| 2026-04-30 13:09 | 48.97503 | 2.23168 | 4186 ft | 203 kts | 89° |
| 2026-04-30 13:09 | 48.97618 | 2.25277 | 4007 ft | 195 kts | 89° |
| 2026-04-30 13:09 | 48.97726 | 2.27256 | 3982 ft | 180 kts | 89° |
| 2026-04-30 13:10 | 48.97823 | 2.29095 | 3879 ft | 170 kts | 90° |
| 2026-04-30 13:10 | 48.97913 | 2.30860 | 3686 ft | 166 kts | 89° |
| 2026-04-30 13:10 | 48.98006 | 2.32592 | 3466 ft | 164 kts | 89° |
| 2026-04-30 13:10 | 48.98099 | 2.34304 | 3240 ft | 161 kts | 89° |
| 2026-04-30 13:11 | 48.98188 | 2.35997 | 3012 ft | 158 kts | 88° |
| 2026-04-30 13:11 | 48.98277 | 2.37637 | 2801 ft | 151 kts | 87° |
| 2026-04-30 13:11 | 48.98359 | 2.39173 | 2599 ft | 142 kts | 87° |
| 2026-04-30 13:11 | 48.98437 | 2.40621 | 2425 ft | 133 kts | 86° |
| 2026-04-30 13:12 | 48.98514 | 2.42020 | 2250 ft | 131 kts | 86° |
| 2026-04-30 13:12 | 48.98588 | 2.43409 | 2072 ft | 132 kts | 86° |
| 2026-04-30 13:12 | 48.98661 | 2.44804 | 1894 ft | 131 kts | 86° |
| 2026-04-30 13:13 | 48.98806 | 2.47486 | 1556 ft | 126 kts | 86° |
| 2026-04-30 13:13 | 48.98877 | 2.48830 | 1387 ft | 128 kts | 86° |
| 2026-04-30 13:13 | 48.99018 | 2.51497 | 1038 ft | 126 kts | 85° |
| 2026-04-30 13:14 | 48.99091 | 2.52818 | 861 ft | 125 kts | 85° |
| 2026-04-30 13:14 | 48.99162 | 2.54135 | 699 ft | 125 kts | 89° |
| 2026-04-30 13:14 | 48.99314 | 2.56786 | 402 ft | 126 kts | 87° |
| 2026-04-30 13:15 | 48.99383 | 2.58040 | 366 ft | 110 kts | 86° |
| 2026-04-30 13:15 | 48.99487 | 2.59316 | 365 ft | 35 kts | 65° |
| 2026-04-30 13:15 | 48.99554 | 2.59542 | 364 ft | 17 kts | 64° |
| 2026-04-30 13:16 | 48.99623 | 2.59679 | 367 ft | 17 kts | 27° |
| 2026-04-30 13:16 | 48.99727 | 2.59683 | 364 ft | 15 kts | 355° |
| 2026-04-30 13:16 | 48.99849 | 2.59667 | 364 ft | 19 kts | 355° |
| 2026-04-30 13:17 | 49.00077 | 2.59547 | 364 ft | 18 kts | 275° |
| 2026-04-30 13:17 | 49.00068 | 2.59344 | 363 ft | 21 kts | 265° |
| 2026-04-30 13:17 | 49.00044 | 2.58861 | 362 ft | 31 kts | 265° |
| 2026-04-30 13:18 | 49.00019 | 2.58407 | 363 ft | 34 kts | 265° |
| 2026-04-30 13:18 | 48.99988 | 2.57789 | 367 ft | 11 kts | 281° |
| 2026-04-30 13:18 | 48.99998 | 2.57755 | 364 ft | 0 kts | 303° |
| 2026-04-30 13:19 | 49.00013 | 2.57741 | 367 ft | 7 kts | 332° |
| 2026-04-30 13:19 | 49.00052 | 2.57676 | 365 ft | 7 kts | 275° |
| 2026-04-30 13:19 | 49.00069 | 2.57633 | 367 ft | 3 kts | 334° |
| 2026-04-30 13:19 | 49.00097 | 2.57629 | 367 ft | 5 kts | 357° |
| 2026-04-30 13:20 | 49.00112 | 2.57629 | 367 ft | 0 kts | 358° |
| 2026-04-30 13:20 | 49.00125 | 2.57628 | 365 ft | 1 kts | 356° |
| 2026-04-30 13:20 | 49.00133 | 2.57627 | 363 ft | 0 kts | 356° |